sensor_id;sensor_type;location;lat;lon;timestamp;pressure;altitude;pressure_sealevel;temperature;humidity
13954;BME280;7049;49.444;8.522;2023-03-11T00:00:47;78069.19;;;-3.47;59.30
13954;BME280;7049;49.444;8.522;2023-03-11T00:05:49;78098.47;;;-3.47;58.83
13954;BME280;7049;49.444;8.522;2023-03-11T00:10:53;78092.19;;;-3.47;57.42
13954;BME280;7049;49.444;8.522;2023-03-11T00:15:57;78098.47;;;-3.47;57.52
13954;BME280;7049;49.444;8.522;2023-03-11T00:21:00;78106.84;;;-3.47;57.15
13954;BME280;7049;49.444;8.522;2023-03-11T00:26:02;78119.41;;;-3.47;58.27
13954;BME280;7049;49.444;8.522;2023-03-11T00:31:05;78115.22;;;-3.47;57.80
13954;BME280;7049;49.444;8.522;2023-03-11T00:36:10;78127.78;;;-3.47;57.55
13954;BME280;7049;49.444;8.522;2023-03-11T00:41:20;78144.50;;;-3.47;58.01
13954;BME280;7049;49.444;8.522;2023-03-11T00:46:23;78146.59;;;-3.47;54.80
13954;BME280;7049;49.444;8.522;2023-03-11T00:51:25;78140.31;;;-3.47;55.92
13954;BME280;7049;49.444;8.522;2023-03-11T00:56:27;78150.78;;;-3.47;55.51
13954;BME280;7049;49.444;8.522;2023-03-11T01:01:30;78171.72;;;-3.47;57.36
13954;BME280;7049;49.444;8.522;2023-03-11T01:06:31;78188.47;;;-3.47;56.91
13954;BME280;7049;49.444;8.522;2023-03-11T01:11:33;78182.19;;;-3.47;56.65
13954;BME280;7049;49.444;8.522;2023-03-11T01:16:35;78198.91;;;-3.47;57.62
13954;BME280;7049;49.444;8.522;2023-03-11T01:21:37;78194.75;;;-3.47;57.65
13954;BME280;7049;49.444;8.522;2023-03-11T01:26:38;78217.75;;;-3.47;57.64
13954;BME280;7049;49.444;8.522;2023-03-11T01:31:41;78207.28;;;-3.47;58.59
13954;BME280;7049;49.444;8.522;2023-03-11T01:36:43;78203.09;;;-3.47;57.64
13954;BME280;7049;49.444;8.522;2023-03-11T01:41:45;78198.91;;;-3.47;57.00
13954;BME280;7049;49.444;8.522;2023-03-11T01:52:27;78228.22;;;-3.47;55.84
13954;BME280;7049;49.444;8.522;2023-03-11T01:57:29;78253.34;;;-3.47;56.59
13954;BME280;7049;49.444;8.522;2023-03-11T02:02:33;78261.69;;;-3.47;59.17
13954;BME280;7049;49.444;8.522;2023-03-11T02:07:38;78265.88;;;-3.47;56.88
13954;BME280;7049;49.444;8.522;2023-03-11T02:12:40;78276.34;;;-3.47;57.73
13954;BME280;7049;49.444;8.522;2023-03-11T02:17:42;78272.16;;;-3.47;56.51
13954;BME280;7049;49.444;8.522;2023-03-11T02:22:46;78267.97;;;-3.47;58.61
13954;BME280;7049;49.444;8.522;2023-03-11T02:27:51;78259.59;;;-3.47;58.59
13954;BME280;7049;49.444;8.522;2023-03-11T02:32:53;78257.53;;;-3.47;56.93
13954;BME280;7049;49.444;8.522;2023-03-11T02:37:56;78259.59;;;-3.47;57.10
13954;BME280;7049;49.444;8.522;2023-03-11T02:43:01;78263.78;;;-3.47;58.89
13954;BME280;7049;49.444;8.522;2023-03-11T02:48:07;78274.25;;;-3.47;59.70
13954;BME280;7049;49.444;8.522;2023-03-11T02:53:10;78280.53;;;-3.47;59.21
13954;BME280;7049;49.444;8.522;2023-03-11T02:58:13;78286.81;;;-3.47;58.39
13954;BME280;7049;49.444;8.522;2023-03-11T03:03:14;78295.19;;;-3.47;58.13
13954;BME280;7049;49.444;8.522;2023-03-11T03:08:16;78297.28;;;-3.47;60.54
13954;BME280;7049;49.444;8.522;2023-03-11T03:13:18;78299.38;;;-3.47;60.06
13954;BME280;7049;49.444;8.522;2023-03-11T03:18:20;78305.66;;;-3.47;62.11
13954;BME280;7049;49.444;8.522;2023-03-11T03:23:21;78320.31;;;-3.47;63.28
13954;BME280;7049;49.444;8.522;2023-03-11T03:28:26;78334.94;;;-3.47;61.00
13954;BME280;7049;49.444;8.522;2023-03-11T03:33:28;78337.03;;;-3.47;61.95
13954;BME280;7049;49.444;8.522;2023-03-11T03:38:30;78341.22;;;-3.47;63.43
13954;BME280;7049;49.444;8.522;2023-03-11T03:43:33;78357.97;;;-3.47;63.30
13954;BME280;7049;49.444;8.522;2023-03-11T03:48:35;78360.06;;;-3.47;63.64
13954;BME280;7049;49.444;8.522;2023-03-11T03:53:36;78362.16;;;-3.47;61.89
13954;BME280;7049;49.444;8.522;2023-03-11T03:58:39;78366.34;;;-3.47;62.44
13954;BME280;7049;49.444;8.522;2023-03-11T04:03:41;78383.09;;;-3.47;64.20
13954;BME280;7049;49.444;8.522;2023-03-11T04:08:42;78385.19;;;-3.47;64.21
13954;BME280;7049;49.444;8.522;2023-03-11T04:13:46;78383.09;;;-3.47;65.64
13954;BME280;7049;49.444;8.522;2023-03-11T04:18:48;78399.81;;;-3.47;64.80
13954;BME280;7049;49.444;8.522;2023-03-11T04:23:49;78410.28;;;-3.47;65.75
13954;BME280;7049;49.444;8.522;2023-03-11T04:28:52;78408.19;;;-3.47;65.37
13954;BME280;7049;49.444;8.522;2023-03-11T04:33:53;78416.56;;;-3.47;66.87
13954;BME280;7049;49.444;8.522;2023-03-11T04:38:55;78412.38;;;-3.47;67.32
13954;BME280;7049;49.444;8.522;2023-03-11T04:43:59;78412.38;;;-3.47;67.19
13954;BME280;7049;49.444;8.522;2023-03-11T04:49:00;78420.75;;;-3.47;65.22
13954;BME280;7049;49.444;8.522;2023-03-11T04:54:02;78420.75;;;-3.47;64.78
13954;BME280;7049;49.444;8.522;2023-03-11T04:59:04;78439.59;;;-3.47;65.15
13954;BME280;7049;49.444;8.522;2023-03-11T05:04:06;78452.16;;;-3.47;66.49
13954;BME280;7049;49.444;8.522;2023-03-11T05:09:07;78447.97;;;-3.47;67.45
13954;BME280;7049;49.444;8.522;2023-03-11T05:14:10;78454.25;;;-3.47;66.15
13954;BME280;7049;49.444;8.522;2023-03-11T05:19:11;78454.25;;;-3.47;66.92
13954;BME280;7049;49.444;8.522;2023-03-11T05:24:32;78464.72;;;-3.47;66.98
13954;BME280;7049;49.444;8.522;2023-03-11T05:29:35;78475.16;;;-3.47;66.53
13954;BME280;7049;49.444;8.522;2023-03-11T05:34:36;78479.34;;;-3.47;66.43
13954;BME280;7049;49.444;8.522;2023-03-11T05:39:38;78483.53;;;-3.47;66.61
13954;BME280;7049;49.444;8.522;2023-03-11T05:44:41;78489.81;;;-3.47;66.27
13954;BME280;7049;49.444;8.522;2023-03-11T05:49:42;78494.00;;;-3.47;65.76
13954;BME280;7049;49.444;8.522;2023-03-11T05:54:44;78500.28;;;-3.47;66.68
13954;BME280;7049;49.444;8.522;2023-03-11T05:59:46;78502.38;;;-3.47;67.99
13954;BME280;7049;49.444;8.522;2023-03-11T06:04:48;78510.75;;;-3.47;68.05
13954;BME280;7049;49.444;8.522;2023-03-11T06:09:49;78506.56;;;-3.47;67.82
13954;BME280;7049;49.444;8.522;2023-03-11T06:14:53;78512.84;;;-3.47;68.40
13954;BME280;7049;49.444;8.522;2023-03-11T06:19:54;78519.13;;;-3.47;68.78
13954;BME280;7049;49.444;8.522;2023-03-11T06:24:56;78519.13;;;-3.47;68.94
13954;BME280;7049;49.444;8.522;2023-03-11T06:29:59;78521.22;;;-3.47;69.06
13954;BME280;7049;49.444;8.522;2023-03-11T06:35:00;78529.59;;;-3.47;68.53
13954;BME280;7049;49.444;8.522;2023-03-11T06:40:02;78544.25;;;-3.47;68.97
13954;BME280;7049;49.444;8.522;2023-03-11T06:45:07;78548.41;;;-3.47;68.95
13954;BME280;7049;49.444;8.522;2023-03-11T06:50:09;78548.41;;;-3.47;68.86
13954;BME280;7049;49.444;8.522;2023-03-11T06:55:11;78546.31;;;-3.47;67.54
13954;BME280;7049;49.444;8.522;2023-03-11T07:00:16;78542.16;;;-3.47;67.27
13954;BME280;7049;49.444;8.522;2023-03-11T07:05:17;78540.06;;;-3.47;67.25
13954;BME280;7049;49.444;8.522;2023-03-11T07:10:19;78533.78;;;-3.47;68.41
13954;BME280;7049;49.444;8.522;2023-03-11T07:15:22;78521.22;;;-3.47;67.51
13954;BME280;7049;49.444;8.522;2023-03-11T07:20:23;78517.03;;;-3.47;66.83
13954;BME280;7049;49.444;8.522;2023-03-11T07:25:24;78504.47;;;-3.47;65.21
13954;BME280;7049;49.444;8.522;2023-03-11T07:30:27;78483.53;;;-3.47;66.71
13954;BME280;7049;49.444;8.522;2023-03-11T07:35:29;78471.00;;;-3.47;66.22
13954;BME280;7049;49.444;8.522;2023-03-11T07:40:30;78460.53;;;-3.47;66.33
13954;BME280;7049;49.444;8.522;2023-03-11T07:45:33;78450.06;;;-3.47;65.47
13954;BME280;7049;49.444;8.522;2023-03-11T07:50:34;78420.75;;;-3.47;65.94
13954;BME280;7049;49.444;8.522;2023-03-11T07:55:36;78399.81;;;-3.47;62.80
13954;BME280;7049;49.444;8.522;2023-03-11T08:00:39;78376.81;;;-3.47;64.04
13954;BME280;7049;49.444;8.522;2023-03-11T08:05:40;78343.31;;;-3.47;63.38
13954;BME280;7049;49.444;8.522;2023-03-11T08:10:43;78311.94;;;-3.47;62.61
13954;BME280;7049;49.444;8.522;2023-03-11T08:15:45;78282.63;;;-3.47;59.62
13954;BME280;7049;49.444;8.522;2023-03-11T08:20:47;78242.88;;;-3.47;59.91
13954;BME280;7049;49.444;8.522;2023-03-11T08:25:49;78211.47;;;-3.47;58.68
13954;BME280;7049;49.444;8.522;2023-03-11T08:30:52;78169.63;;;-3.47;57.88
13954;BME280;7049;49.444;8.522;2023-03-11T08:35:53;78129.88;;;-3.47;56.63
13954;BME280;7049;49.444;8.522;2023-03-11T08:40:54;78096.38;;;-3.47;53.68
13954;BME280;7049;49.444;8.522;2023-03-11T08:45:58;78044.06;;;-3.47;53.09
13954;BME280;7049;49.444;8.522;2023-03-11T08:51:00;78025.22;;;-3.47;48.13
13954;BME280;7049;49.444;8.522;2023-03-11T08:56:02;77985.47;;;-3.47;48.94
13954;BME280;7049;49.444;8.522;2023-03-11T09:01:05;77952.00;;;-3.47;48.08
13954;BME280;7049;49.444;8.522;2023-03-11T09:06:10;77916.41;;;-3.47;46.10
13954;BME280;7049;49.444;8.522;2023-03-11T09:11:13;77889.22;;;-3.47;43.20
13954;BME280;7049;49.444;8.522;2023-03-11T09:16:18;77887.13;;;-3.47;41.71
13954;BME280;7049;49.444;8.522;2023-03-11T09:21:21;77920.59;;;-3.47;40.56
13954;BME280;7049;49.444;8.522;2023-03-11T09:26:22;77970.81;;;-3.47;40.67
13954;BME280;7049;49.444;8.522;2023-03-11T09:31:25;77995.94;;;-3.47;41.21
13954;BME280;7049;49.444;8.522;2023-03-11T09:36:26;78014.78;;;-3.47;41.73
13954;BME280;7049;49.444;8.522;2023-03-11T09:41:35;78033.59;;;-3.47;41.28
13954;BME280;7049;49.444;8.522;2023-03-11T09:52:15;77914.31;;;-3.47;40.87
13954;BME280;7049;49.444;8.522;2023-03-11T09:57:20;77901.78;;;-3.47;39.53
13954;BME280;7049;49.444;8.522;2023-03-11T10:02:24;77876.66;;;-3.47;39.27
13954;BME280;7049;49.444;8.522;2023-03-11T10:07:33;77878.75;;;-3.47;38.56
13954;BME280;7049;49.444;8.522;2023-03-11T10:12:43;77874.56;;;-3.47;38.34
13954;BME280;7049;49.444;8.522;2023-03-11T10:18:03;77859.91;;;-3.47;38.77
13954;BME280;7049;49.444;8.522;2023-03-11T10:23:14;77797.16;;;-3.47;38.18
13954;BME280;7049;49.444;8.522;2023-03-11T10:28:21;77767.84;;;-3.47;37.35
13954;BME280;7049;49.444;8.522;2023-03-11T10:33:29;77688.34;;;-3.47;36.95
13954;BME280;7049;49.444;8.522;2023-03-11T10:38:36;77640.22;;;-3.47;35.49
13954;BME280;7049;49.444;8.522;2023-03-11T10:43:44;77644.41;;;-3.47;35.79
13954;BME280;7049;49.444;8.522;2023-03-11T10:48:50;77648.59;;;-3.47;36.53
13954;BME280;7049;49.444;8.522;2023-03-11T10:53:54;77692.53;;;-3.47;35.21
13954;BME280;7049;49.444;8.522;2023-03-11T10:58:56;77734.38;;;-3.47;36.12
13954;BME280;7049;49.444;8.522;2023-03-11T11:04:00;77767.84;;;-3.47;36.45
13954;BME280;7049;49.444;8.522;2023-03-11T11:09:05;77807.59;;;-3.47;35.33
13954;BME280;7049;49.444;8.522;2023-03-11T11:14:07;77763.66;;;-3.47;36.55
13954;BME280;7049;49.444;8.522;2023-03-11T11:19:12;77684.16;;;-3.47;35.98
13954;BME280;7049;49.444;8.522;2023-03-11T11:24:19;77604.66;;;-3.47;35.03
13954;BME280;7049;49.444;8.522;2023-03-11T11:29:23;77548.16;;;-3.47;35.17
13954;BME280;7049;49.444;8.522;2023-03-11T11:34:30;77556.53;;;-3.47;33.87
13954;BME280;7049;49.444;8.522;2023-03-11T11:39:36;77523.03;;;-3.47;33.30
13954;BME280;7049;49.444;8.522;2023-03-11T11:44:41;77487.47;;;-3.47;32.52
13954;BME280;7049;49.444;8.522;2023-03-11T11:49:49;77462.38;;;-3.47;29.91
13954;BME280;7049;49.444;8.522;2023-03-11T11:54:56;77447.72;;;-3.47;28.72
13954;BME280;7049;49.444;8.522;2023-03-11T12:00:00;77445.63;;;-3.47;31.13
13954;BME280;7049;49.444;8.522;2023-03-11T12:05:08;77447.72;;;-3.47;28.22
13954;BME280;7049;49.444;8.522;2023-03-11T12:10:18;77420.53;;;-3.47;31.98
13954;BME280;7049;49.444;8.522;2023-03-11T12:15:25;77382.88;;;-3.47;32.47
13954;BME280;7049;49.444;8.522;2023-03-11T12:20:32;77366.13;;;-3.47;32.52
13954;BME280;7049;49.444;8.522;2023-03-11T12:25:38;77349.38;;;-3.47;32.57
13954;BME280;7049;49.444;8.522;2023-03-11T12:30:43;77338.94;;;-3.47;32.71
13954;BME280;7049;49.444;8.522;2023-03-11T12:35:52;77376.59;;;-3.47;31.81
13954;BME280;7049;49.444;8.522;2023-03-11T12:41:00;77433.06;;;-3.47;32.17
13954;BME280;7049;49.444;8.522;2023-03-11T12:46:03;77474.94;;;-3.47;32.12
13954;BME280;7049;49.444;8.522;2023-03-11T12:51:39;77479.09;;;-3.47;33.08
13954;BME280;7049;49.444;8.522;2023-03-11T12:56:43;77466.56;;;-3.47;32.47
13954;BME280;7049;49.444;8.522;2023-03-11T13:01:52;77464.47;;;-3.47;33.08
13954;BME280;7049;49.444;8.522;2023-03-11T13:07:27;77458.19;;;-3.47;32.50
13954;BME280;7049;49.444;8.522;2023-03-11T13:12:39;77456.09;;;-3.47;31.64
13954;BME280;7049;49.444;8.522;2023-03-11T13:17:41;77451.91;;;-3.47;32.27
13954;BME280;7049;49.444;8.522;2023-03-11T13:23:19;77441.44;;;-3.47;32.58
13954;BME280;7049;49.444;8.522;2023-03-11T13:28:30;77447.72;;;-3.47;32.24
13954;BME280;7049;49.444;8.522;2023-03-11T13:33:47;77460.28;;;-3.47;31.96
13954;BME280;7049;49.444;8.522;2023-03-11T13:39:14;77470.75;;;-3.47;31.96
13954;BME280;7049;49.444;8.522;2023-03-11T13:44:26;77495.84;;;-3.47;32.44
13954;BME280;7049;49.444;8.522;2023-03-11T13:49:34;77531.41;;;-3.47;32.69
13954;BME280;7049;49.444;8.522;2023-03-11T13:54:46;77543.97;;;-3.47;32.37
13954;BME280;7049;49.444;8.522;2023-03-11T13:59:51;77564.91;;;-3.47;33.29
13954;BME280;7049;49.444;8.522;2023-03-11T14:04:55;77585.81;;;-3.47;33.94
13954;BME280;7049;49.444;8.522;2023-03-11T14:10:18;77604.66;;;-3.47;33.64
13954;BME280;7049;49.444;8.522;2023-03-11T14:15:22;77625.56;;;-3.47;33.76
13954;BME280;7049;49.444;8.522;2023-03-11T14:20:25;77642.31;;;-3.47;34.21
13954;BME280;7049;49.444;8.522;2023-03-11T14:25:29;77663.22;;;-3.47;34.04
13954;BME280;7049;49.444;8.522;2023-03-11T14:30:33;77665.31;;;-3.47;34.18
13954;BME280;7049;49.444;8.522;2023-03-11T14:35:35;77675.78;;;-3.47;34.71
13954;BME280;7049;49.444;8.522;2023-03-11T14:40:37;77696.72;;;-3.47;34.28
13954;BME280;7049;49.444;8.522;2023-03-11T14:45:41;77703.00;;;-3.47;34.73
13954;BME280;7049;49.444;8.522;2023-03-11T14:50:45;77730.19;;;-3.47;34.32
13954;BME280;7049;49.444;8.522;2023-03-11T14:55:53;77746.94;;;-3.47;34.68
13954;BME280;7049;49.444;8.522;2023-03-11T15:00:58;77763.66;;;-3.47;34.21
13954;BME280;7049;49.444;8.522;2023-03-11T15:06:02;77767.84;;;-3.47;34.73
13954;BME280;7049;49.444;8.522;2023-03-11T15:11:18;77788.78;;;-3.47;35.20
13954;BME280;7049;49.444;8.522;2023-03-11T15:16:24;77813.88;;;-3.47;35.20
13954;BME280;7049;49.444;8.522;2023-03-11T15:21:26;77815.97;;;-3.47;35.36
13954;BME280;7049;49.444;8.522;2023-03-11T15:26:31;77813.88;;;-3.47;35.36
13954;BME280;7049;49.444;8.522;2023-03-11T15:31:35;77818.06;;;-3.47;35.06
13954;BME280;7049;49.444;8.522;2023-03-11T15:36:38;77818.06;;;-3.47;35.03
13954;BME280;7049;49.444;8.522;2023-03-11T15:41:42;77830.63;;;-3.47;35.03
13954;BME280;7049;49.444;8.522;2023-03-11T15:46:44;77839.00;;;-3.47;34.96
13954;BME280;7049;49.444;8.522;2023-03-11T15:51:46;77851.56;;;-3.47;35.48
13954;BME280;7049;49.444;8.522;2023-03-11T15:56:49;77851.56;;;-3.47;35.96
13954;BME280;7049;49.444;8.522;2023-03-11T16:01:50;77868.28;;;-3.47;35.56
13954;BME280;7049;49.444;8.522;2023-03-11T16:06:52;77895.50;;;-3.47;35.91
13954;BME280;7049;49.444;8.522;2023-03-11T16:11:55;77905.97;;;-3.47;35.85
13954;BME280;7049;49.444;8.522;2023-03-11T16:16:56;77926.88;;;-3.47;35.79
13954;BME280;7049;49.444;8.522;2023-03-11T16:21:58;77935.25;;;-3.47;35.96
13954;BME280;7049;49.444;8.522;2023-03-11T16:27:01;77943.63;;;-3.47;35.89
13954;BME280;7049;49.444;8.522;2023-03-11T16:32:03;77828.53;;;-3.47;35.17
13954;BME280;7049;49.444;8.522;2023-03-11T16:37:05;77518.84;;;-3.47;31.52
13954;BME280;7049;49.444;8.522;2023-03-11T16:42:08;77449.81;;;-3.47;30.42
13954;BME280;7049;49.444;8.522;2023-03-11T16:47:09;77587.91;;;-3.47;31.55
13954;BME280;7049;49.444;8.522;2023-03-11T16:52:11;77763.66;;;-3.47;33.33
13954;BME280;7049;49.444;8.522;2023-03-11T16:57:14;77897.59;;;-3.47;34.31
13954;BME280;7049;49.444;8.522;2023-03-11T17:02:15;77981.28;;;-3.47;35.14
13954;BME280;7049;49.444;8.522;2023-03-11T17:07:17;78039.88;;;-3.47;36.10
13954;BME280;7049;49.444;8.522;2023-03-11T17:12:20;78090.09;;;-3.47;36.77
13954;BME280;7049;49.444;8.522;2023-03-11T17:17:22;78119.41;;;-3.47;37.03
13954;BME280;7049;49.444;8.522;2023-03-11T17:22:23;78152.88;;;-3.47;37.69
13954;BME280;7049;49.444;8.522;2023-03-11T17:27:26;78178.00;;;-3.47;38.26
13954;BME280;7049;49.444;8.522;2023-03-11T17:32:31;78194.75;;;-3.47;38.72
13954;BME280;7049;49.444;8.522;2023-03-11T17:37:33;78219.84;;;-3.47;39.10
13954;BME280;7049;49.444;8.522;2023-03-11T17:42:38;78238.69;;;-3.47;39.70
13954;BME280;7049;49.444;8.522;2023-03-11T17:47:40;78259.59;;;-3.47;40.13
13954;BME280;7049;49.444;8.522;2023-03-11T17:52:44;78286.81;;;-3.47;40.33
13954;BME280;7049;49.444;8.522;2023-03-11T17:57:47;78307.75;;;-3.47;40.78
13954;BME280;7049;49.444;8.522;2023-03-11T18:02:49;78337.03;;;-3.47;41.45
13954;BME280;7049;49.444;8.522;2023-03-11T18:07:50;78345.41;;;-3.47;42.03
13954;BME280;7049;49.444;8.522;2023-03-11T18:12:53;78355.88;;;-3.47;42.20
13954;BME280;7049;49.444;8.522;2023-03-11T18:17:54;78381.00;;;-3.47;42.91
13954;BME280;7049;49.444;8.522;2023-03-11T18:22:57;78397.72;;;-3.47;43.66
13954;BME280;7049;49.444;8.522;2023-03-11T18:28:02;78420.75;;;-3.47;44.14
13954;BME280;7049;49.444;8.522;2023-03-11T18:33:04;78437.50;;;-3.47;44.98
13954;BME280;7049;49.444;8.522;2023-03-11T18:38:05;78452.16;;;-3.47;45.71
13954;BME280;7049;49.444;8.522;2023-03-11T18:43:11;78473.06;;;-3.47;46.12
13954;BME280;7049;49.444;8.522;2023-03-11T18:48:13;78487.72;;;-3.47;46.35
13954;BME280;7049;49.444;8.522;2023-03-11T18:53:15;78500.28;;;-3.47;45.89
13954;BME280;7049;49.444;8.522;2023-03-11T18:58:18;78521.22;;;-3.47;46.35
13954;BME280;7049;49.444;8.522;2023-03-11T19:03:20;78537.97;;;-3.47;46.71
13954;BME280;7049;49.444;8.522;2023-03-11T19:08:21;78556.78;;;-3.47;47.63
13954;BME280;7049;49.444;8.522;2023-03-11T19:13:24;78573.53;;;-3.47;48.63
13954;BME280;7049;49.444;8.522;2023-03-11T19:18:25;78600.75;;;-3.47;49.51
13954;BME280;7049;49.444;8.522;2023-03-11T19:23:27;78607.03;;;-3.47;49.69
13954;BME280;7049;49.444;8.522;2023-03-11T19:28:30;78617.50;;;-3.47;50.39
13954;BME280;7049;49.444;8.522;2023-03-11T19:33:32;78630.03;;;-3.47;51.11
13954;BME280;7049;49.444;8.522;2023-03-11T19:38:34;78648.88;;;-3.47;51.70
13954;BME280;7049;49.444;8.522;2023-03-11T19:43:37;78661.44;;;-3.47;52.19
13954;BME280;7049;49.444;8.522;2023-03-11T19:48:39;78680.28;;;-3.47;52.74
13954;BME280;7049;49.444;8.522;2023-03-11T19:53:40;78694.94;;;-3.47;52.99
13954;BME280;7049;49.444;8.522;2023-03-11T19:58:43;78713.75;;;-3.47;53.35
13954;BME280;7049;49.444;8.522;2023-03-11T20:03:45;78722.13;;;-3.47;53.21
13954;BME280;7049;49.444;8.522;2023-03-11T20:08:49;78740.97;;;-3.47;53.31
13954;BME280;7049;49.444;8.522;2023-03-11T20:13:52;78751.44;;;-3.47;54.07
13954;BME280;7049;49.444;8.522;2023-03-11T20:18:55;78766.09;;;-3.47;54.19
13954;BME280;7049;49.444;8.522;2023-03-11T20:23:57;78780.75;;;-3.47;54.60
13954;BME280;7049;49.444;8.522;2023-03-11T20:28:59;78795.41;;;-3.47;54.76
13954;BME280;7049;49.444;8.522;2023-03-11T20:34:02;78812.13;;;-3.47;54.88
13954;BME280;7049;49.444;8.522;2023-03-11T20:39:04;78818.41;;;-3.47;55.29
13954;BME280;7049;49.444;8.522;2023-03-11T20:44:10;78828.88;;;-3.47;55.97
13954;BME280;7049;49.444;8.522;2023-03-11T20:49:12;78839.34;;;-3.47;57.26
13954;BME280;7049;49.444;8.522;2023-03-11T20:54:14;78849.81;;;-3.47;57.18
13954;BME280;7049;49.444;8.522;2023-03-11T20:59:17;78864.47;;;-3.47;57.52
13954;BME280;7049;49.444;8.522;2023-03-11T21:04:18;78872.84;;;-3.47;58.13
13954;BME280;7049;49.444;8.522;2023-03-11T21:09:23;78877.03;;;-3.47;58.41
13954;BME280;7049;49.444;8.522;2023-03-11T21:14:26;78883.31;;;-3.47;59.01
13954;BME280;7049;49.444;8.522;2023-03-11T21:19:28;78897.97;;;-3.47;59.55
13954;BME280;7049;49.444;8.522;2023-03-11T21:24:29;78902.16;;;-3.47;60.35
13954;BME280;7049;49.444;8.522;2023-03-11T21:29:32;78918.88;;;-3.47;60.96
13954;BME280;7049;49.444;8.522;2023-03-11T21:34:33;78918.88;;;-3.47;60.68
13954;BME280;7049;49.444;8.522;2023-03-11T21:39:35;78927.25;;;-3.47;61.02
13954;BME280;7049;49.444;8.522;2023-03-11T21:44:38;78939.81;;;-3.47;61.27
13954;BME280;7049;49.444;8.522;2023-03-11T21:49:39;78939.81;;;-3.47;62.11
13954;BME280;7049;49.444;8.522;2023-03-11T21:54:40;78950.28;;;-3.47;62.02
13954;BME280;7049;49.444;8.522;2023-03-11T21:59:43;78954.47;;;-3.47;62.46
13954;BME280;7049;49.444;8.522;2023-03-11T22:04:44;78960.75;;;-3.47;62.11
13954;BME280;7049;49.444;8.522;2023-03-11T22:09:46;78973.31;;;-3.47;63.24
13954;BME280;7049;49.444;8.522;2023-03-11T22:14:49;78987.97;;;-3.47;64.00
13954;BME280;7049;49.444;8.522;2023-03-11T22:19:50;78992.16;;;-3.47;64.52
13954;BME280;7049;49.444;8.522;2023-03-11T22:24:51;78994.25;;;-3.47;64.80
13954;BME280;7049;49.444;8.522;2023-03-11T22:29:54;79002.63;;;-3.47;65.07
13954;BME280;7049;49.444;8.522;2023-03-11T22:34:56;79002.63;;;-3.47;65.47
13954;BME280;7049;49.444;8.522;2023-03-11T22:39:57;79006.81;;;-3.47;65.92
13954;BME280;7049;49.444;8.522;2023-03-11T22:45:01;79017.25;;;-3.47;66.68
13954;BME280;7049;49.444;8.522;2023-03-11T22:50:04;79023.53;;;-3.47;67.29
13954;BME280;7049;49.444;8.522;2023-03-11T22:55:06;79023.53;;;-3.47;67.23
13954;BME280;7049;49.444;8.522;2023-03-11T23:00:12;79023.53;;;-3.47;67.58
13954;BME280;7049;49.444;8.522;2023-03-11T23:05:16;79025.63;;;-3.47;67.48
13954;BME280;7049;49.444;8.522;2023-03-11T23:10:18;79040.28;;;-3.47;67.60
13954;BME280;7049;49.444;8.522;2023-03-11T23:15:25;79044.47;;;-3.47;68.32
13954;BME280;7049;49.444;8.522;2023-03-11T23:20:27;79048.66;;;-3.47;68.89
13954;BME280;7049;49.444;8.522;2023-03-11T23:25:28;79065.41;;;-3.47;69.00
13954;BME280;7049;49.444;8.522;2023-03-11T23:30:31;79073.78;;;-3.47;69.50
13954;BME280;7049;49.444;8.522;2023-03-11T23:35:33;79075.88;;;-3.47;69.49
13954;BME280;7049;49.444;8.522;2023-03-11T23:40:34;79073.78;;;-3.47;69.62
13954;BME280;7049;49.444;8.522;2023-03-11T23:45:37;79075.88;;;-3.47;70.04
13954;BME280;7049;49.444;8.522;2023-03-11T23:50:39;79082.16;;;-3.47;70.49
13954;BME280;7049;49.444;8.522;2023-03-11T23:55:44;79086.34;;;-3.47;70.06
